sensor_id;sensor_type;location;lat;lon;timestamp;temperature;humidity
3778;DHT22;1904;50.076;8.660;2023-08-07T00:02:17;13.90;1.00
3778;DHT22;1904;50.076;8.660;2023-08-07T00:04:59;13.90;1.00
3778;DHT22;1904;50.076;8.660;2023-08-07T00:07:34;14.60;1.00
3778;DHT22;1904;50.076;8.660;2023-08-07T00:10:17;13.90;1.00
3778;DHT22;1904;50.076;8.660;2023-08-07T00:12:46;13.90;1.00
3778;DHT22;1904;50.076;8.660;2023-08-07T00:15:17;13.90;1.00
3778;DHT22;1904;50.076;8.660;2023-08-07T00:17:52;13.90;1.00
3778;DHT22;1904;50.076;8.660;2023-08-07T00:20:34;14.00;1.00
3778;DHT22;1904;50.076;8.660;2023-08-07T00:23:16;14.00;1.00
3778;DHT22;1904;50.076;8.660;2023-08-07T00:26:16;14.10;1.00
3778;DHT22;1904;50.076;8.660;2023-08-07T00:29:16;14.10;1.00
3778;DHT22;1904;50.076;8.660;2023-08-07T00:31:47;14.00;1.00
3778;DHT22;1904;50.076;8.660;2023-08-07T00:34:17;14.00;1.00
3778;DHT22;1904;50.076;8.660;2023-08-07T00:36:46;13.90;1.00
3778;DHT22;1904;50.076;8.660;2023-08-07T00:39:46;13.90;1.00
3778;DHT22;1904;50.076;8.660;2023-08-07T00:42:46;13.80;1.00
3778;DHT22;1904;50.076;8.660;2023-08-07T00:45:46;13.90;1.00
3778;DHT22;1904;50.076;8.660;2023-08-07T00:48:34;13.80;1.00
3778;DHT22;1904;50.076;8.660;2023-08-07T00:51:17;13.90;1.00
3778;DHT22;1904;50.076;8.660;2023-08-07T00:53:47;13.90;1.00
3778;DHT22;1904;50.076;8.660;2023-08-07T00:56:17;13.90;1.00
3778;DHT22;1904;50.076;8.660;2023-08-07T00:58:47;13.90;1.00
3778;DHT22;1904;50.076;8.660;2023-08-07T01:01:12;13.90;1.00
3778;DHT22;1904;50.076;8.660;2023-08-07T01:03:47;13.90;1.00
3778;DHT22;1904;50.076;8.660;2023-08-07T01:06:17;14.10;1.00
3778;DHT22;1904;50.076;8.660;2023-08-07T01:14:20;13.80;1.00
3778;DHT22;1904;50.076;8.660;2023-08-07T01:17:07;13.90;1.00
3778;DHT22;1904;50.076;8.660;2023-08-07T01:19:35;13.90;1.00
3778;DHT22;1904;50.076;8.660;2023-08-07T01:22:17;13.80;1.00
3778;DHT22;1904;50.076;8.660;2023-08-07T01:24:44;13.80;1.00
3778;DHT22;1904;50.076;8.660;2023-08-07T01:34:16;13.70;1.00
3778;DHT22;1904;50.076;8.660;2023-08-07T01:36:48;13.70;1.00
3778;DHT22;1904;50.076;8.660;2023-08-07T01:39:18;13.80;1.00
3778;DHT22;1904;50.076;8.660;2023-08-07T01:41:47;13.80;1.00
3778;DHT22;1904;50.076;8.660;2023-08-07T01:47:47;13.80;1.00
3778;DHT22;1904;50.076;8.660;2023-08-07T01:50:16;13.80;1.00
3778;DHT22;1904;50.076;8.660;2023-08-07T01:52:47;13.80;1.00
3778;DHT22;1904;50.076;8.660;2023-08-07T01:55:18;13.80;1.00
3778;DHT22;1904;50.076;8.660;2023-08-07T02:07:47;13.80;1.00
3778;DHT22;1904;50.076;8.660;2023-08-07T02:10:17;13.80;1.00
3778;DHT22;1904;50.076;8.660;2023-08-07T02:13:16;13.70;1.00
3778;DHT22;1904;50.076;8.660;2023-08-07T02:15:47;13.80;1.00
3778;DHT22;1904;50.076;8.660;2023-08-07T02:18:46;13.80;1.00
3778;DHT22;1904;50.076;8.660;2023-08-07T02:21:16;13.90;1.00
3778;DHT22;1904;50.076;8.660;2023-08-07T02:23:47;13.90;1.00
3778;DHT22;1904;50.076;8.660;2023-08-07T02:26:17;13.90;1.00
3778;DHT22;1904;50.076;8.660;2023-08-07T02:32:16;13.90;1.00
3778;DHT22;1904;50.076;8.660;2023-08-07T02:35:11;13.90;1.00
3778;DHT22;1904;50.076;8.660;2023-08-07T02:37:53;13.90;1.00
3778;DHT22;1904;50.076;8.660;2023-08-07T02:40:46;13.90;1.00
3778;DHT22;1904;50.076;8.660;2023-08-07T02:43:46;14.00;1.00
3778;DHT22;1904;50.076;8.660;2023-08-07T02:49:47;14.00;1.00
3778;DHT22;1904;50.076;8.660;2023-08-07T02:54:47;13.90;1.00
3778;DHT22;1904;50.076;8.660;2023-08-07T02:57:17;13.90;1.00
3778;DHT22;1904;50.076;8.660;2023-08-07T02:59:47;14.00;1.00
3778;DHT22;1904;50.076;8.660;2023-08-07T03:02:46;13.90;1.00
3778;DHT22;1904;50.076;8.660;2023-08-07T03:05:17;13.90;1.00
3778;DHT22;1904;50.076;8.660;2023-08-07T03:07:47;13.90;1.00
3778;DHT22;1904;50.076;8.660;2023-08-07T03:10:17;13.80;1.00
3778;DHT22;1904;50.076;8.660;2023-08-07T03:12:47;13.90;1.00
3778;DHT22;1904;50.076;8.660;2023-08-07T03:15:17;14.50;1.00
3778;DHT22;1904;50.076;8.660;2023-08-07T03:17:47;13.80;1.00
3778;DHT22;1904;50.076;8.660;2023-08-07T03:20:19;13.90;1.00
3778;DHT22;1904;50.076;8.660;2023-08-07T03:22:47;13.80;1.00
3778;DHT22;1904;50.076;8.660;2023-08-07T03:25:29;13.90;1.00
3778;DHT22;1904;50.076;8.660;2023-08-07T03:28:16;13.80;1.00
3778;DHT22;1904;50.076;8.660;2023-08-07T03:30:53;13.80;1.00
3778;DHT22;1904;50.076;8.660;2023-08-07T03:33:40;13.80;1.00
3778;DHT22;1904;50.076;8.660;2023-08-07T03:36:17;13.90;1.00
3778;DHT22;1904;50.076;8.660;2023-08-07T03:38:47;14.40;1.00
3778;DHT22;1904;50.076;8.660;2023-08-07T03:41:12;13.80;1.00
3778;DHT22;1904;50.076;8.660;2023-08-07T03:43:38;13.90;1.00
3778;DHT22;1904;50.076;8.660;2023-08-07T03:46:04;14.00;1.00
3778;DHT22;1904;50.076;8.660;2023-08-07T03:48:30;14.00;1.00
3778;DHT22;1904;50.076;8.660;2023-08-07T03:51:11;13.90;1.00
3778;DHT22;1904;50.076;8.660;2023-08-07T03:53:47;13.90;1.00
3778;DHT22;1904;50.076;8.660;2023-08-07T03:56:17;13.90;1.00
3778;DHT22;1904;50.076;8.660;2023-08-07T03:58:47;13.80;1.00
3778;DHT22;1904;50.076;8.660;2023-08-07T04:01:17;13.80;1.00
3778;DHT22;1904;50.076;8.660;2023-08-07T04:03:47;13.90;1.00
3778;DHT22;1904;50.076;8.660;2023-08-07T04:06:16;13.90;1.00
3778;DHT22;1904;50.076;8.660;2023-08-07T04:12:23;13.90;1.00
3778;DHT22;1904;50.076;8.660;2023-08-07T04:15:16;13.90;1.00
3778;DHT22;1904;50.076;8.660;2023-08-07T04:17:47;14.00;1.00
3778;DHT22;1904;50.076;8.660;2023-08-07T04:23:34;14.00;1.00
3778;DHT22;1904;50.076;8.660;2023-08-07T04:36:11;14.00;1.00
3778;DHT22;1904;50.076;8.660;2023-08-07T04:38:41;14.00;1.00
3778;DHT22;1904;50.076;8.660;2023-08-07T04:44:46;14.10;1.00
3778;DHT22;1904;50.076;8.660;2023-08-07T04:57:18;14.10;1.00
3778;DHT22;1904;50.076;8.660;2023-08-07T04:59:59;14.10;1.00
3778;DHT22;1904;50.076;8.660;2023-08-07T05:08:52;14.10;1.00
3778;DHT22;1904;50.076;8.660;2023-08-07T05:14:58;14.20;1.00
3778;DHT22;1904;50.076;8.660;2023-08-07T05:17:52;14.20;1.00
3778;DHT22;1904;50.076;8.660;2023-08-07T05:23:40;14.20;1.00
3778;DHT22;1904;50.076;8.660;2023-08-07T05:29:27;14.50;1.00
3778;DHT22;1904;50.076;8.660;2023-08-07T05:45:20;14.50;1.00
3778;DHT22;1904;50.076;8.660;2023-08-07T06:01:40;14.60;1.00
3778;DHT22;1904;50.076;8.660;2023-08-07T06:07:24;14.40;1.00
3778;DHT22;1904;50.076;8.660;2023-08-07T06:10:16;14.40;1.00
3778;DHT22;1904;50.076;8.660;2023-08-07T06:12:42;14.30;1.00
3778;DHT22;1904;50.076;8.660;2023-08-07T06:15:08;14.30;1.00
3778;DHT22;1904;50.076;8.660;2023-08-07T06:17:34;14.10;1.00
3778;DHT22;1904;50.076;8.660;2023-08-07T06:20:17;14.10;1.00
3778;DHT22;1904;50.076;8.660;2023-08-07T06:22:47;14.20;1.00
3778;DHT22;1904;50.076;8.660;2023-08-07T06:25:17;14.20;1.00
3778;DHT22;1904;50.076;8.660;2023-08-07T06:27:47;14.10;1.00
3778;DHT22;1904;50.076;8.660;2023-08-07T06:30:13;14.10;1.00
3778;DHT22;1904;50.076;8.660;2023-08-07T06:33:10;14.00;1.00
3778;DHT22;1904;50.076;8.660;2023-08-07T06:35:47;14.10;1.00
3778;DHT22;1904;50.076;8.660;2023-08-07T06:38:12;14.60;1.00
3778;DHT22;1904;50.076;8.660;2023-08-07T06:40:38;14.20;1.00
3778;DHT22;1904;50.076;8.660;2023-08-07T06:43:05;14.30;1.00
3778;DHT22;1904;50.076;8.660;2023-08-07T06:45:31;14.30;1.00
3778;DHT22;1904;50.076;8.660;2023-08-07T06:47:56;14.30;1.00
3778;DHT22;1904;50.076;8.660;2023-08-07T06:50:22;14.40;1.00
3778;DHT22;1904;50.076;8.660;2023-08-07T06:52:48;14.40;1.00
3778;DHT22;1904;50.076;8.660;2023-08-07T06:55:14;14.50;1.00
3778;DHT22;1904;50.076;8.660;2023-08-07T06:57:40;14.50;1.00
3778;DHT22;1904;50.076;8.660;2023-08-07T07:00:06;14.50;1.00
3778;DHT22;1904;50.076;8.660;2023-08-07T07:02:32;14.60;1.00
3778;DHT22;1904;50.076;8.660;2023-08-07T07:04:58;14.70;1.00
3778;DHT22;1904;50.076;8.660;2023-08-07T07:07:46;14.80;1.00
3778;DHT22;1904;50.076;8.660;2023-08-07T07:10:17;14.70;1.00
3778;DHT22;1904;50.076;8.660;2023-08-07T07:12:47;14.70;1.00
3778;DHT22;1904;50.076;8.660;2023-08-07T07:15:17;14.60;1.00
3778;DHT22;1904;50.076;8.660;2023-08-07T07:18:16;14.60;1.00
3778;DHT22;1904;50.076;8.660;2023-08-07T07:20:47;14.50;1.00
3778;DHT22;1904;50.076;8.660;2023-08-07T07:23:46;14.60;1.00
3778;DHT22;1904;50.076;8.660;2023-08-07T07:26:17;14.60;1.00
3778;DHT22;1904;50.076;8.660;2023-08-07T07:28:47;14.70;1.00
3778;DHT22;1904;50.076;8.660;2023-08-07T07:34:47;14.80;1.00
3778;DHT22;1904;50.076;8.660;2023-08-07T07:37:17;14.80;1.00
3778;DHT22;1904;50.076;8.660;2023-08-07T07:39:43;14.70;1.00
3778;DHT22;1904;50.076;8.660;2023-08-07T07:42:17;14.70;1.00
3778;DHT22;1904;50.076;8.660;2023-08-07T07:44:42;14.70;1.00
3778;DHT22;1904;50.076;8.660;2023-08-07T07:47:11;14.60;1.00
3778;DHT22;1904;50.076;8.660;2023-08-07T07:49:46;14.70;1.00
3778;DHT22;1904;50.076;8.660;2023-08-07T07:52:46;14.70;1.00
3778;DHT22;1904;50.076;8.660;2023-08-07T07:55:12;14.70;1.00
3778;DHT22;1904;50.076;8.660;2023-08-07T07:57:58;14.60;1.00
3778;DHT22;1904;50.076;8.660;2023-08-07T08:03:35;14.70;1.00
3778;DHT22;1904;50.076;8.660;2023-08-07T08:06:22;14.80;1.00
3778;DHT22;1904;50.076;8.660;2023-08-07T08:08:48;14.80;1.00
3778;DHT22;1904;50.076;8.660;2023-08-07T08:11:14;14.90;1.00
3778;DHT22;1904;50.076;8.660;2023-08-07T08:13:40;15.00;1.00
3778;DHT22;1904;50.076;8.660;2023-08-07T08:16:07;15.10;1.00
3778;DHT22;1904;50.076;8.660;2023-08-07T08:18:52;15.00;1.00
3778;DHT22;1904;50.076;8.660;2023-08-07T08:21:18;15.00;1.00
3778;DHT22;1904;50.076;8.660;2023-08-07T08:23:53;15.00;1.00
3778;DHT22;1904;50.076;8.660;2023-08-07T08:26:29;15.10;1.00
3778;DHT22;1904;50.076;8.660;2023-08-07T08:38:34;15.10;1.00
3778;DHT22;1904;50.076;8.660;2023-08-07T08:41:11;15.10;1.00
3778;DHT22;1904;50.076;8.660;2023-08-07T08:43:38;15.20;1.00
3778;DHT22;1904;50.076;8.660;2023-08-07T08:46:05;15.30;1.00
3778;DHT22;1904;50.076;8.660;2023-08-07T08:48:34;15.20;1.00
3778;DHT22;1904;50.076;8.660;2023-08-07T08:51:02;15.20;1.00
3778;DHT22;1904;50.076;8.660;2023-08-07T08:53:29;15.20;1.00
3778;DHT22;1904;50.076;8.660;2023-08-07T08:55:55;15.10;1.00
3778;DHT22;1904;50.076;8.660;2023-08-07T08:58:23;15.20;1.00
3778;DHT22;1904;50.076;8.660;2023-08-07T09:00:53;15.20;1.00
3778;DHT22;1904;50.076;8.660;2023-08-07T09:03:47;15.30;1.00
3778;DHT22;1904;50.076;8.660;2023-08-07T09:06:23;15.20;1.00
3778;DHT22;1904;50.076;8.660;2023-08-07T09:09:17;15.30;1.00
3778;DHT22;1904;50.076;8.660;2023-08-07T09:15:08;15.40;1.00
3778;DHT22;1904;50.076;8.660;2023-08-07T09:24:41;15.40;1.00
3778;DHT22;1904;50.076;8.660;2023-08-07T09:27:17;15.60;1.00
3778;DHT22;1904;50.076;8.660;2023-08-07T09:30:16;15.60;1.00
3778;DHT22;1904;50.076;8.660;2023-08-07T09:32:59;15.60;1.00
3778;DHT22;1904;50.076;8.660;2023-08-07T09:35:46;15.60;1.00
3778;DHT22;1904;50.076;8.660;2023-08-07T09:38:30;15.60;1.00
3778;DHT22;1904;50.076;8.660;2023-08-07T09:41:01;15.50;1.00
3778;DHT22;1904;50.076;8.660;2023-08-07T09:43:41;15.60;1.00
3778;DHT22;1904;50.076;8.660;2023-08-07T09:46:11;15.60;1.00
3778;DHT22;1904;50.076;8.660;2023-08-07T09:48:43;15.60;1.00
3778;DHT22;1904;50.076;8.660;2023-08-07T09:51:11;15.70;1.00
3778;DHT22;1904;50.076;8.660;2023-08-07T09:53:37;15.50;1.00
3778;DHT22;1904;50.076;8.660;2023-08-07T09:56:03;15.60;1.00
3778;DHT22;1904;50.076;8.660;2023-08-07T09:58:29;15.60;1.00
3778;DHT22;1904;50.076;8.660;2023-08-07T10:01:16;15.70;1.00
3778;DHT22;1904;50.076;8.660;2023-08-07T10:03:42;15.60;1.00
3778;DHT22;1904;50.076;8.660;2023-08-07T10:06:08;15.70;1.00
3778;DHT22;1904;50.076;8.660;2023-08-07T10:08:35;15.70;1.00
3778;DHT22;1904;50.076;8.660;2023-08-07T10:11:02;15.80;1.00
3778;DHT22;1904;50.076;8.660;2023-08-07T10:13:29;15.80;1.00
3778;DHT22;1904;50.076;8.660;2023-08-07T10:15:59;16.00;1.00
3778;DHT22;1904;50.076;8.660;2023-08-07T10:18:35;16.00;1.00
3778;DHT22;1904;50.076;8.660;2023-08-07T10:21:03;16.10;1.00
3778;DHT22;1904;50.076;8.660;2023-08-07T10:23:36;16.10;1.00
3778;DHT22;1904;50.076;8.660;2023-08-07T10:26:06;16.10;1.00
3778;DHT22;1904;50.076;8.660;2023-08-07T10:28:41;16.00;1.00
3778;DHT22;1904;50.076;8.660;2023-08-07T10:31:40;16.00;1.00
3778;DHT22;1904;50.076;8.660;2023-08-07T10:34:11;15.80;1.00
3778;DHT22;1904;50.076;8.660;2023-08-07T10:36:41;15.70;1.00
3778;DHT22;1904;50.076;8.660;2023-08-07T10:39:12;15.60;1.00
3778;DHT22;1904;50.076;8.660;2023-08-07T10:41:42;15.70;1.00
3778;DHT22;1904;50.076;8.660;2023-08-07T10:44:30;15.60;1.00
3778;DHT22;1904;50.076;8.660;2023-08-07T10:46:59;15.60;1.00
3778;DHT22;1904;50.076;8.660;2023-08-07T10:49:36;15.80;1.00
3778;DHT22;1904;50.076;8.660;2023-08-07T10:52:12;15.90;1.00
3778;DHT22;1904;50.076;8.660;2023-08-07T10:57:12;15.70;1.00
3778;DHT22;1904;50.076;8.660;2023-08-07T10:59:50;15.70;1.00
3778;DHT22;1904;50.076;8.660;2023-08-07T11:02:26;15.70;1.00
3778;DHT22;1904;50.076;8.660;2023-08-07T11:08:12;15.90;1.00
3778;DHT22;1904;50.076;8.660;2023-08-07T11:10:37;15.80;1.00
3778;DHT22;1904;50.076;8.660;2023-08-07T11:13:03;16.00;1.00
3778;DHT22;1904;50.076;8.660;2023-08-07T11:15:30;15.90;1.00
3778;DHT22;1904;50.076;8.660;2023-08-07T11:17:56;16.10;1.00
3778;DHT22;1904;50.076;8.660;2023-08-07T11:20:22;16.10;1.00
3778;DHT22;1904;50.076;8.660;2023-08-07T11:22:48;16.00;1.00
3778;DHT22;1904;50.076;8.660;2023-08-07T11:25:41;16.20;1.00
3778;DHT22;1904;50.076;8.660;2023-08-07T11:28:11;16.20;1.00
3778;DHT22;1904;50.076;8.660;2023-08-07T11:33:40;16.20;1.00
3778;DHT22;1904;50.076;8.660;2023-08-07T11:36:41;16.20;1.00
3778;DHT22;1904;50.076;8.660;2023-08-07T11:52:40;16.50;1.00
3778;DHT22;1904;50.076;8.660;2023-08-07T11:58:47;17.00;1.00
3778;DHT22;1904;50.076;8.660;2023-08-07T12:04:35;17.10;1.00
3778;DHT22;1904;50.076;8.660;2023-08-07T12:07:01;17.50;1.00
3778;DHT22;1904;50.076;8.660;2023-08-07T12:09:30;17.50;1.00
3778;DHT22;1904;50.076;8.660;2023-08-07T12:15:11;18.00;1.00
3778;DHT22;1904;50.076;8.660;2023-08-07T12:17:41;18.30;1.00
3778;DHT22;1904;50.076;8.660;2023-08-07T12:29:36;19.80;1.00
3778;DHT22;1904;50.076;8.660;2023-08-07T12:32:11;19.90;1.00
3778;DHT22;1904;50.076;8.660;2023-08-07T12:34:41;20.10;1.00
3778;DHT22;1904;50.076;8.660;2023-08-07T12:37:23;20.20;1.00
3778;DHT22;1904;50.076;8.660;2023-08-07T12:40:05;20.40;1.00
3778;DHT22;1904;50.076;8.660;2023-08-07T12:42:31;20.10;1.00
3778;DHT22;1904;50.076;8.660;2023-08-07T12:45:05;20.10;1.00
3778;DHT22;1904;50.076;8.660;2023-08-07T12:47:35;20.40;1.00
3778;DHT22;1904;50.076;8.660;2023-08-07T12:50:11;20.20;1.00
3778;DHT22;1904;50.076;8.660;2023-08-07T12:52:37;20.40;1.00
3778;DHT22;1904;50.076;8.660;2023-08-07T12:55:03;20.40;1.00
3778;DHT22;1904;50.076;8.660;2023-08-07T12:57:41;20.60;1.00
3778;DHT22;1904;50.076;8.660;2023-08-07T13:00:11;20.50;1.00
3778;DHT22;1904;50.076;8.660;2023-08-07T13:02:46;20.30;1.00
3778;DHT22;1904;50.076;8.660;2023-08-07T13:05:29;20.20;1.00
3778;DHT22;1904;50.076;8.660;2023-08-07T13:07:59;20.10;1.00
3778;DHT22;1904;50.076;8.660;2023-08-07T13:10:35;20.10;1.00
3778;DHT22;1904;50.076;8.660;2023-08-07T13:13:11;20.10;1.00
3778;DHT22;1904;50.076;8.660;2023-08-07T13:15:41;20.40;1.00
3778;DHT22;1904;50.076;8.660;2023-08-07T13:18:11;20.40;1.00
3778;DHT22;1904;50.076;8.660;2023-08-07T13:20:41;20.20;1.00
3778;DHT22;1904;50.076;8.660;2023-08-07T13:23:11;20.30;1.00
3778;DHT22;1904;50.076;8.660;2023-08-07T13:29:11;20.60;1.00
3778;DHT22;1904;50.076;8.660;2023-08-07T13:31:41;20.70;1.00
3778;DHT22;1904;50.076;8.660;2023-08-07T13:34:11;20.60;1.00
3778;DHT22;1904;50.076;8.660;2023-08-07T13:36:47;20.60;1.00
3778;DHT22;1904;50.076;8.660;2023-08-07T13:39:41;20.40;1.00
3778;DHT22;1904;50.076;8.660;2023-08-07T13:42:07;20.60;1.00
3778;DHT22;1904;50.076;8.660;2023-08-07T13:44:33;21.00;1.00
3778;DHT22;1904;50.076;8.660;2023-08-07T13:46:59;20.80;1.00
3778;DHT22;1904;50.076;8.660;2023-08-07T13:49:25;20.90;1.00
3778;DHT22;1904;50.076;8.660;2023-08-07T13:51:53;20.60;1.00
3778;DHT22;1904;50.076;8.660;2023-08-07T13:54:18;20.60;1.00
3778;DHT22;1904;50.076;8.660;2023-08-07T13:57:16;20.50;1.00
3778;DHT22;1904;50.076;8.660;2023-08-07T14:00:11;20.50;1.00
3778;DHT22;1904;50.076;8.660;2023-08-07T14:06:05;20.70;1.00
3778;DHT22;1904;50.076;8.660;2023-08-07T14:08:41;20.60;1.00
3778;DHT22;1904;50.076;8.660;2023-08-07T14:11:23;20.70;1.00
3778;DHT22;1904;50.076;8.660;2023-08-07T14:14:11;21.00;1.00
3778;DHT22;1904;50.076;8.660;2023-08-07T14:16:41;21.20;1.00
3778;DHT22;1904;50.076;8.660;2023-08-07T14:19:23;21.40;1.00
3778;DHT22;1904;50.076;8.660;2023-08-07T14:22:11;21.50;1.00
3778;DHT22;1904;50.076;8.660;2023-08-07T14:27:58;21.50;1.00
3778;DHT22;1904;50.076;8.660;2023-08-07T14:46:41;21.50;1.00
3778;DHT22;1904;50.076;8.660;2023-08-07T14:52:29;21.10;1.00
3778;DHT22;1904;50.076;8.660;2023-08-07T14:55:05;21.30;1.00
3778;DHT22;1904;50.076;8.660;2023-08-07T14:57:31;21.40;1.00
3778;DHT22;1904;50.076;8.660;2023-08-07T15:03:06;21.20;1.00
3778;DHT22;1904;50.076;8.660;2023-08-07T15:11:58;21.50;1.00
3778;DHT22;1904;50.076;8.660;2023-08-07T15:25:05;22.20;1.00
3778;DHT22;1904;50.076;8.660;2023-08-07T15:31:11;23.40;1.00
3778;DHT22;1904;50.076;8.660;2023-08-07T15:37:29;24.10;1.00
3778;DHT22;1904;50.076;8.660;2023-08-07T15:40:29;24.60;1.00
3778;DHT22;1904;50.076;8.660;2023-08-07T15:50:11;24.20;1.00
3778;DHT22;1904;50.076;8.660;2023-08-07T15:52:41;23.90;1.00
3778;DHT22;1904;50.076;8.660;2023-08-07T15:55:11;24.00;1.00
3778;DHT22;1904;50.076;8.660;2023-08-07T15:57:47;24.30;1.00
3778;DHT22;1904;50.076;8.660;2023-08-07T16:00:35;25.00;1.00
3778;DHT22;1904;50.076;8.660;2023-08-07T16:03:22;25.70;1.00
3778;DHT22;1904;50.076;8.660;2023-08-07T16:05:53;26.30;1.00
3778;DHT22;1904;50.076;8.660;2023-08-07T16:08:19;27.40;1.00
3778;DHT22;1904;50.076;8.660;2023-08-07T16:11:05;28.90;1.00
3778;DHT22;1904;50.076;8.660;2023-08-07T16:13:31;30.80;1.00
3778;DHT22;1904;50.076;8.660;2023-08-07T16:15:56;31.60;1.00
3778;DHT22;1904;50.076;8.660;2023-08-07T16:18:22;31.90;1.00
3778;DHT22;1904;50.076;8.660;2023-08-07T16:20:48;32.50;1.00
3778;DHT22;1904;50.076;8.660;2023-08-07T16:23:17;34.00;1.00
3778;DHT22;1904;50.076;8.660;2023-08-07T16:35:48;32.70;1.00
3778;DHT22;1904;50.076;8.660;2023-08-07T16:48:08;31.90;1.00
3778;DHT22;1904;50.076;8.660;2023-08-07T17:09:53;24.10;1.00
3778;DHT22;1904;50.076;8.660;2023-08-07T17:15:26;25.00;1.00
3778;DHT22;1904;50.076;8.660;2023-08-07T17:24:35;27.00;1.00
3778;DHT22;1904;50.076;8.660;2023-08-07T17:27:01;26.30;1.00
3778;DHT22;1904;50.076;8.660;2023-08-07T17:32:49;25.00;1.00
3778;DHT22;1904;50.076;8.660;2023-08-07T17:42:05;25.40;1.00
3778;DHT22;1904;50.076;8.660;2023-08-07T17:44:59;24.70;1.00
3778;DHT22;1904;50.076;8.660;2023-08-07T17:50:46;23.90;1.00
3778;DHT22;1904;50.076;8.660;2023-08-07T17:56:34;22.90;1.00
3778;DHT22;1904;50.076;8.660;2023-08-07T18:02:47;22.20;1.00
3778;DHT22;1904;50.076;8.660;2023-08-07T18:08:36;21.40;1.00
3778;DHT22;1904;50.076;8.660;2023-08-07T18:14:24;20.80;1.00
3778;DHT22;1904;50.076;8.660;2023-08-07T18:20:23;20.30;1.00
3778;DHT22;1904;50.076;8.660;2023-08-07T18:29:22;19.50;1.00
3778;DHT22;1904;50.076;8.660;2023-08-07T18:35:10;19.00;1.00
3778;DHT22;1904;50.076;8.660;2023-08-07T18:43:54;18.10;1.00
3778;DHT22;1904;50.076;8.660;2023-08-07T18:46:20;18.00;1.00
3778;DHT22;1904;50.076;8.660;2023-08-07T18:48:45;17.60;1.00
3778;DHT22;1904;50.076;8.660;2023-08-07T18:51:11;17.60;1.00
3778;DHT22;1904;50.076;8.660;2023-08-07T18:54:11;17.40;1.00
3778;DHT22;1904;50.076;8.660;2023-08-07T19:00:17;16.90;1.00
3778;DHT22;1904;50.076;8.660;2023-08-07T19:06:41;16.40;1.00
3778;DHT22;1904;50.076;8.660;2023-08-07T19:16:11;15.80;1.00
3778;DHT22;1904;50.076;8.660;2023-08-07T19:21:58;15.50;1.00
3778;DHT22;1904;50.076;8.660;2023-08-07T19:27:46;15.30;1.00
3778;DHT22;1904;50.076;8.660;2023-08-07T19:33:33;15.00;1.00
3778;DHT22;1904;50.076;8.660;2023-08-07T19:36:11;15.00;1.00
3778;DHT22;1904;50.076;8.660;2023-08-07T19:41:59;14.80;1.00
3778;DHT22;1904;50.076;8.660;2023-08-07T19:50:54;14.50;1.00
3778;DHT22;1904;50.076;8.660;2023-08-07T19:56:41;14.50;1.00
3778;DHT22;1904;50.076;8.660;2023-08-07T20:02:47;14.40;1.00
3778;DHT22;1904;50.076;8.660;2023-08-07T20:15:14;14.20;1.00
3778;DHT22;1904;50.076;8.660;2023-08-07T20:17:48;14.20;1.00
3778;DHT22;1904;50.076;8.660;2023-08-07T20:20:29;14.30;1.00
3778;DHT22;1904;50.076;8.660;2023-08-07T20:26:16;14.30;1.00
3778;DHT22;1904;50.076;8.660;2023-08-07T20:29:05;14.40;1.00
3778;DHT22;1904;50.076;8.660;2023-08-07T20:41:22;14.50;1.00
3778;DHT22;1904;50.076;8.660;2023-08-07T20:47:10;14.40;1.00
3778;DHT22;1904;50.076;8.660;2023-08-07T20:53:23;14.50;1.00
3778;DHT22;1904;50.076;8.660;2023-08-07T20:59:10;14.40;1.00
3778;DHT22;1904;50.076;8.660;2023-08-07T21:04:58;14.40;1.00
3778;DHT22;1904;50.076;8.660;2023-08-07T21:07:29;14.30;1.00
3778;DHT22;1904;50.076;8.660;2023-08-07T21:10:11;14.30;1.00
3778;DHT22;1904;50.076;8.660;2023-08-07T21:12:59;14.10;1.00
3778;DHT22;1904;50.076;8.660;2023-08-07T21:15:24;14.10;1.00
3778;DHT22;1904;50.076;8.660;2023-08-07T21:17:50;14.00;1.00
3778;DHT22;1904;50.076;8.660;2023-08-07T21:20:16;13.90;1.00
3778;DHT22;1904;50.076;8.660;2023-08-07T21:22:47;13.90;1.00
3778;DHT22;1904;50.076;8.660;2023-08-07T21:25:13;13.80;1.00
3778;DHT22;1904;50.076;8.660;2023-08-07T21:31:00;13.70;1.00
3778;DHT22;1904;50.076;8.660;2023-08-07T21:53:28;13.20;1.00
3778;DHT22;1904;50.076;8.660;2023-08-07T21:59:16;13.20;1.00
3778;DHT22;1904;50.076;8.660;2023-08-07T22:08:47;13.20;1.00
3778;DHT22;1904;50.076;8.660;2023-08-07T22:24:41;13.20;1.00
3778;DHT22;1904;50.076;8.660;2023-08-07T22:37:13;13.10;1.00
3778;DHT22;1904;50.076;8.660;2023-08-07T22:43:00;13.10;1.00
3778;DHT22;1904;50.076;8.660;2023-08-07T22:48:48;13.10;1.00
3778;DHT22;1904;50.076;8.660;2023-08-07T23:01:35;12.90;1.00
3778;DHT22;1904;50.076;8.660;2023-08-07T23:04:17;13.30;1.00
3778;DHT22;1904;50.076;8.660;2023-08-07T23:07:01;13.40;1.00
3778;DHT22;1904;50.076;8.660;2023-08-07T23:09:27;12.80;1.00
3778;DHT22;1904;50.076;8.660;2023-08-07T23:11:52;12.80;1.00
3778;DHT22;1904;50.076;8.660;2023-08-07T23:21:01;12.80;1.00
3778;DHT22;1904;50.076;8.660;2023-08-07T23:27:05;12.80;1.00
3778;DHT22;1904;50.076;8.660;2023-08-07T23:39:49;12.60;1.00
3778;DHT22;1904;50.076;8.660;2023-08-07T23:42:15;12.50;1.00
3778;DHT22;1904;50.076;8.660;2023-08-07T23:44:41;12.50;1.00
3778;DHT22;1904;50.076;8.660;2023-08-07T23:47:06;12.50;1.00
3778;DHT22;1904;50.076;8.660;2023-08-07T23:49:33;12.40;1.00
3778;DHT22;1904;50.076;8.660;2023-08-07T23:51:59;12.40;1.00
3778;DHT22;1904;50.076;8.660;2023-08-07T23:54:25;12.40;1.00
